Time;durP1;ratioP1;P1;durP2;ratioP2;P2;SDS_P1;SDS_P2;PMS_P1;PMS_P2;Temp;Humidity;BMP_temperature;BMP_pressure;BME280_temperature;BME280_humidity;BME280_pressure;Samples;Min_cycle;Max_cycle;Signal;HPM_P1;HPM_P2
2022/07/04 00:02:17;;;;;;;2.05;0.98;;;;;;;27.25;25.41;101584.44;5063139;28;20126;-82
2022/07/04 00:04:44;;;;;;;1.90;0.80;;;;;;;27.23;25.67;101584.63;5045564;28;20072;-81
2022/07/04 00:07:11;;;;;;;1.92;0.70;;;;;;;27.20;25.47;101585.00;5048487;28;20051;-82
2022/07/04 00:09:38;;;;;;;2.03;0.88;;;;;;;27.17;24.98;101585.44;5049371;28;20117;-82
2022/07/04 00:12:05;;;;;;;1.50;0.80;;;;;;;27.16;25.53;101580.91;5051842;28;20113;-82
2022/07/04 00:14:31;;;;;;;3.22;1.00;;;;;;;27.12;25.59;101587.03;5046405;28;20115;-82
2022/07/04 00:17:01;;;;;;;2.25;0.80;;;;;;;27.10;25.65;101590.00;5049479;28;20036;-84
2022/07/04 00:19:28;;;;;;;1.75;0.80;;;;;;;27.07;25.71;101592.34;5039398;28;20588;-82
2022/07/04 00:21:54;;;;;;;2.00;0.80;;;;;;;27.05;25.98;101586.09;5050276;28;20060;-82
2022/07/04 00:24:21;;;;;;;1.52;0.85;;;;;;;27.04;25.88;101598.28;5045621;28;20075;-82
2022/07/04 00:26:48;;;;;;;1.50;0.90;;;;;;;27.01;26.15;101581.97;5060298;28;20079;-82
2022/07/04 00:29:14;;;;;;;1.75;0.82;;;;;;;26.98;26.09;101585.13;5047471;28;20041;-82
2022/07/04 00:31:41;;;;;;;1.67;0.88;;;;;;;26.96;26.04;101585.31;5046199;28;20073;-82
2022/07/04 00:34:08;;;;;;;1.67;0.70;;;;;;;26.94;26.47;101586.56;5044181;28;20042;-82
2022/07/04 00:36:35;;;;;;;1.90;0.70;;;;;;;26.91;26.14;101581.38;5045440;28;20049;-82
2022/07/04 00:39:02;;;;;;;2.28;0.98;;;;;;;26.88;26.13;101580.66;5041961;28;20140;-82
2022/07/04 00:41:29;;;;;;;2.22;0.93;;;;;;;26.87;26.30;101578.06;5057124;28;21441;-85
2022/07/04 00:44:01;;;;;;;1.60;0.90;;;;;;;26.88;26.71;101572.31;5047552;28;20510;-81
2022/07/04 00:46:39;;;;;;;2.80;1.00;;;;;;;26.81;26.13;101562.13;5040235;28;20502;-82
2022/07/04 00:49:06;;;;;;;1.23;0.77;;;;;;;26.80;26.39;101574.31;5039916;28;20419;-82
2022/07/04 00:51:36;;;;;;;2.10;1.10;;;;;;;26.78;26.52;101568.94;5044528;28;20076;-82
2022/07/04 00:54:08;;;;;;;1.63;0.80;;;;;;;26.75;26.21;101572.13;5053242;28;20102;-82
2022/07/04 00:56:40;;;;;;;1.20;0.80;;;;;;;26.73;26.35;101577.00;5041094;28;20068;-82
2022/07/04 00:59:08;;;;;;;1.70;0.73;;;;;;;26.67;26.67;101558.28;5045375;28;20076;-82
2022/07/04 01:01:35;;;;;;;1.27;0.80;;;;;;;26.65;26.52;101567.88;5050995;28;20128;-82
2022/07/04 01:04:03;;;;;;;2.33;1.00;;;;;;;26.64;26.83;101566.13;5044878;28;20048;-82
2022/07/04 01:06:32;;;;;;;2.70;1.10;;;;;;;26.60;26.60;101560.09;5051627;28;20060;-82
2022/07/04 01:08:59;;;;;;;1.63;0.90;;;;;;;26.56;26.80;101555.94;5047904;28;20040;-82
2022/07/04 01:11:26;;;;;;;3.67;0.90;;;;;;;26.53;26.71;101565.53;5046374;28;20141;-81
2022/07/04 01:13:57;;;;;;;1.63;0.90;;;;;;;26.55;26.81;101565.34;5044022;28;20068;-82
2022/07/04 01:16:27;;;;;;;3.28;1.10;;;;;;;26.52;27.06;101568.50;5046505;28;20506;-82
2022/07/04 01:18:54;;;;;;;2.40;0.90;;;;;;;26.47;26.84;101565.44;5051141;28;20049;-81
2022/07/04 01:21:21;;;;;;;2.47;0.90;;;;;;;26.44;26.98;101558.31;5054928;28;20087;-84
2022/07/04 01:23:48;;;;;;;1.83;0.90;;;;;;;26.41;27.07;101555.94;5051329;28;20126;-84
2022/07/04 01:26:15;;;;;;;3.38;1.10;;;;;;;26.40;27.17;101564.47;5052444;28;20144;-84
2022/07/04 01:28:41;;;;;;;2.08;1.00;;;;;;;26.38;27.12;101566.56;5048816;28;20073;-82
2022/07/04 01:31:08;;;;;;;2.03;1.05;;;;;;;26.36;27.33;101566.75;5045193;28;20064;-82
2022/07/04 01:33:34;;;;;;;1.60;0.80;;;;;;;26.33;27.38;101564.38;5051717;28;20140;-82
2022/07/04 01:36:01;;;;;;;2.22;0.90;;;;;;;26.32;27.50;101562.63;5042986;28;20140;-82
2022/07/04 01:38:28;;;;;;;1.48;1.00;;;;;;;26.32;27.32;101564.53;5050408;28;20091;-85
2022/07/04 01:40:55;;;;;;;1.90;1.17;;;;;;;26.29;27.40;101557.41;5056664;28;20136;-82
2022/07/04 01:43:21;;;;;;;2.50;1.10;;;;;;;26.27;27.50;101556.78;5042742;28;20491;-82
2022/07/04 01:45:48;;;;;;;2.78;1.17;;;;;;;26.24;27.77;101557.09;5050180;28;20614;-82
2022/07/04 01:48:15;;;;;;;2.75;1.23;;;;;;;26.22;27.66;101564.75;5051527;28;20095;-82
2022/07/04 01:50:42;;;;;;;3.08;1.35;;;;;;;26.21;27.95;101560.25;5046548;28;20389;-83
2022/07/04 01:53:09;;;;;;;2.20;1.00;;;;;;;26.19;27.65;101564.28;5045625;28;20772;-82
2022/07/04 01:55:35;;;;;;;2.38;0.93;;;;;;;26.16;27.60;101568.31;5050246;28;20045;-83
2022/07/04 01:58:02;;;;;;;2.20;1.13;;;;;;;26.14;27.80;101567.63;5051057;28;20558;-83
2022/07/04 02:03:13;;;;;;;1.90;1.13;;;;;;;26.08;27.92;101568.38;5042708;28;20131;-83
2022/07/04 02:05:42;;;;;;;1.98;1.17;;;;;;;26.09;27.91;101570.97;5043100;28;20053;-83
2022/07/04 02:08:10;;;;;;;3.03;1.15;;;;;;;26.04;27.98;101570.66;5045991;28;20140;-82
2022/07/04 02:10:37;;;;;;;4.55;1.50;;;;;;;26.02;27.98;101578.34;5060353;28;20453;-82
2022/07/04 02:13:04;;;;;;;2.35;1.15;;;;;;;26.00;28.14;101577.66;5045319;28;20045;-83
2022/07/04 02:15:35;;;;;;;3.72;1.70;;;;;;;25.99;28.31;101578.72;5050499;28;20076;-82
2022/07/04 02:18:03;;;;;;;2.83;1.33;;;;;;;25.95;28.32;101584.81;5048503;28;20040;-83
2022/07/04 02:20:30;;;;;;;3.13;1.70;;;;;;;25.92;28.27;101576.84;5052948;28;20106;-82
2022/07/04 02:22:57;;;;;;;2.92;1.65;;;;;;;25.90;28.35;101587.28;5054192;28;20257;-83
2022/07/04 02:25:23;;;;;;;3.58;1.65;;;;;;;25.87;28.66;101579.31;5047320;28;20110;-82
2022/07/04 02:27:50;;;;;;;3.70;1.77;;;;;;;25.85;28.38;101587.84;5056393;28;20080;-83
2022/07/04 02:30:17;;;;;;;4.50;1.70;;;;;;;25.84;28.74;101588.03;5049819;28;20111;-82
2022/07/04 02:32:44;;;;;;;4.07;1.70;;;;;;;25.81;28.35;101580.91;5048985;28;20141;-82
2022/07/04 02:35:10;;;;;;;2.72;1.50;;;;;;;25.79;28.48;101591.34;5065091;28;20135;-83
2022/07/04 02:37:39;;;;;;;2.75;1.60;;;;;;;25.78;28.54;101595.19;5048547;28;20530;-82
2022/07/04 02:40:06;;;;;;;4.00;1.52;;;;;;;25.76;28.62;101594.53;5061475;28;20075;-82
2022/07/04 02:42:34;;;;;;;3.15;1.33;;;;;;;25.74;28.68;101591.06;5041121;28;20045;-82
2022/07/04 02:45:01;;;;;;;2.85;1.55;;;;;;;25.70;28.69;101592.44;5061853;28;20518;-82
2022/07/04 02:47:27;;;;;;;3.22;1.55;;;;;;;25.68;29.13;101591.78;5049030;28;20041;-82
2022/07/04 02:49:54;;;;;;;2.38;1.23;;;;;;;25.67;28.96;101590.94;5059619;28;20217;-83
2022/07/04 02:52:21;;;;;;;3.28;1.33;;;;;;;25.64;28.97;101580.16;5047172;28;20403;-82
2022/07/04 02:54:48;;;;;;;2.45;1.20;;;;;;;25.61;29.43;101597.19;5057534;28;20477;-82
2022/07/04 02:57:15;;;;;;;1.67;1.20;;;;;;;25.59;29.57;101604.00;5043277;28;20438;-82
2022/07/04 02:59:42;;;;;;;3.53;1.40;;;;;;;25.57;29.35;101611.63;5043241;28;20056;-82
2022/07/04 03:02:08;;;;;;;3.03;1.23;;;;;;;25.54;29.38;101603.63;5053573;28;20053;-83
2022/07/04 03:04:35;;;;;;;1.98;1.13;;;;;;;25.50;29.19;101605.94;5021900;28;20056;-82
2022/07/04 03:07:02;;;;;;;2.05;1.40;;;;;;;25.47;29.33;101603.50;5066820;28;20368;-83
2022/07/04 03:09:28;;;;;;;2.22;1.25;;;;;;;25.43;29.55;101609.63;5055370;28;20049;-82
2022/07/04 03:11:55;;;;;;;2.20;1.20;;;;;;;25.38;29.47;101619.34;5043587;28;20144;-82
2022/07/04 03:14:23;;;;;;;2.05;1.10;;;;;;;25.37;29.33;101627.88;5041853;28;20449;-82
2022/07/04 03:16:49;;;;;;;2.40;1.40;;;;;;;25.33;29.42;101632.94;5056492;28;20069;-83
2022/07/04 03:19:17;;;;;;;2.92;1.20;;;;;;;25.30;29.86;101635.19;5063903;28;20145;-83
2022/07/04 03:21:44;;;;;;;2.70;1.40;;;;;;;25.28;29.71;101634.53;5066627;28;20048;-83
2022/07/04 03:24:11;;;;;;;2.72;1.40;;;;;;;25.23;29.96;101646.19;5065991;28;20499;-83
2022/07/04 03:26:38;;;;;;;2.53;1.40;;;;;;;25.19;29.73;101638.38;5047373;28;20053;-83
2022/07/04 03:29:04;;;;;;;3.40;1.67;;;;;;;25.16;29.96;101644.28;5063056;28;20063;-83
2022/07/04 03:31:31;;;;;;;3.30;1.50;;;;;;;25.12;29.79;101643.78;5048715;28;20056;-82
2022/07/04 03:33:58;;;;;;;3.30;1.50;;;;;;;25.10;30.20;101643.09;5060420;28;20396;-83
2022/07/04 03:36:24;;;;;;;3.28;1.45;;;;;;;25.07;30.24;101649.00;5057443;28;20128;-82
2022/07/04 03:38:51;;;;;;;2.20;1.50;;;;;;;25.06;30.07;101651.97;5052960;28;20032;-83
2022/07/04 03:41:18;;;;;;;2.15;1.20;;;;;;;25.04;29.94;101654.06;5063859;28;20068;-82
2022/07/04 03:43:44;;;;;;;2.50;1.40;;;;;;;25.02;30.05;101651.47;5058001;28;20136;-82
2022/07/04 03:46:11;;;;;;;2.75;1.42;;;;;;;25.01;30.54;101655.28;5047230;28;20087;-82
2022/07/04 03:48:37;;;;;;;3.22;1.40;;;;;;;25.00;30.15;101661.88;5055210;28;20404;-82
2022/07/04 03:51:04;;;;;;;2.97;1.55;;;;;;;24.98;30.49;101652.84;5042778;28;20077;-82
2022/07/04 03:53:31;;;;;;;3.53;1.40;;;;;;;24.96;30.05;101650.25;5057260;28;20059;-82
2022/07/04 03:55:57;;;;;;;3.22;1.38;;;;;;;24.95;30.29;101658.78;5054419;28;20053;-82
2022/07/04 03:58:24;;;;;;;2.92;1.30;;;;;;;24.94;30.33;101654.25;5050573;28;20049;-82
2022/07/04 04:00:51;;;;;;;3.25;1.38;;;;;;;24.93;30.47;101652.53;5053348;28;20049;-82
2022/07/04 04:06:04;;;;;;;2.20;1.42;;;;;;;24.89;30.65;101651.09;5041401;28;20103;-82
2022/07/04 04:08:30;;;;;;;2.40;1.38;;;;;;;24.88;30.69;101661.34;5042149;28;20504;-82
2022/07/04 04:10:57;;;;;;;2.55;1.27;;;;;;;24.86;30.93;101646.78;5056507;28;20522;-82
2022/07/04 04:13:23;;;;;;;2.03;1.40;;;;;;;24.86;30.61;101655.13;5045237;28;20045;-82
2022/07/04 04:15:50;;;;;;;2.20;1.40;;;;;;;24.84;30.53;101654.41;5047035;28;20143;-82
2022/07/04 04:18:16;;;;;;;2.70;1.48;;;;;;;24.83;30.35;101641.56;5049807;28;20120;-82
2022/07/04 04:20:43;;;;;;;3.40;1.50;;;;;;;24.84;30.50;101656.31;5050979;28;20079;-82
2022/07/04 04:23:10;;;;;;;4.15;1.60;;;;;;;24.82;30.50;101658.41;5046543;28;20495;-82
2022/07/04 04:25:36;;;;;;;3.53;1.60;;;;;;;24.82;30.68;101658.41;5046205;28;20132;-82
2022/07/04 04:28:03;;;;;;;2.53;1.40;;;;;;;24.81;30.85;101662.22;5044626;28;20146;-82
2022/07/04 04:30:30;;;;;;;3.35;1.70;;;;;;;24.79;30.82;101662.38;5044144;28;20059;-81
2022/07/04 04:32:57;;;;;;;3.17;1.33;;;;;;;24.78;30.61;101657.03;5043856;28;20041;-82
2022/07/04 04:35:23;;;;;;;3.50;1.65;;;;;;;24.78;30.67;101665.38;5042983;28;20069;-82
2022/07/04 04:37:50;;;;;;;3.13;1.52;;;;;;;24.77;30.69;101672.81;5038842;28;20152;-81
2022/07/04 04:40:17;;;;;;;3.10;1.60;;;;;;;24.76;30.91;101670.22;5037620;28;20075;-80
2022/07/04 04:42:43;;;;;;;3.10;1.42;;;;;;;24.74;30.82;101670.38;5039569;28;20068;-80
2022/07/04 04:45:10;;;;;;;3.72;1.85;;;;;;;24.74;30.89;101673.16;5043872;28;20144;-80
2022/07/04 04:47:37;;;;;;;2.95;1.67;;;;;;;24.73;30.59;101670.56;5046767;28;20132;-81
2022/07/04 04:50:03;;;;;;;3.05;1.60;;;;;;;24.73;31.02;101673.34;5047261;28;20060;-81
2022/07/04 04:52:30;;;;;;;2.63;1.60;;;;;;;24.71;31.01;101681.00;5047273;28;20083;-81
2022/07/04 04:54:57;;;;;;;2.75;1.60;;;;;;;24.71;30.78;101678.22;5041696;28;20057;-83
2022/07/04 04:57:24;;;;;;;3.22;1.83;;;;;;;24.70;31.32;101688.47;5038738;28;20041;-83
2022/07/04 04:59:51;;;;;;;4.30;2.03;;;;;;;24.69;31.13;101689.50;5050697;28;20084;-81
2022/07/04 05:02:21;;;;;;;3.78;1.80;;;;;;;24.70;31.23;101690.38;5042705;28;20138;-82
2022/07/04 05:04:47;;;;;;;4.10;1.70;;;;;;;24.69;31.05;101689.50;5047611;28;20051;-81
2022/07/04 05:07:14;;;;;;;3.47;1.73;;;;;;;24.70;31.33;101688.47;5049697;28;20083;-82
2022/07/04 05:09:41;;;;;;;3.58;1.90;;;;;;;24.71;31.78;101689.34;5043044;28;20049;-81
2022/07/04 05:12:08;;;;;;;3.30;1.65;;;;;;;24.72;31.82;101683.56;5050171;28;20252;-82
2022/07/04 05:14:34;;;;;;;3.45;1.95;;;;;;;24.75;31.50;101685.16;5049115;28;20073;-84
2022/07/04 05:17:01;;;;;;;4.47;1.80;;;;;;;24.79;31.64;101681.00;5048389;28;20144;-81
2022/07/04 05:19:28;;;;;;;3.53;1.80;;;;;;;24.85;31.83;101680.28;5041111;28;20056;-82
2022/07/04 05:21:54;;;;;;;3.45;1.83;;;;;;;24.92;31.99;101675.78;5044014;28;20127;-81
2022/07/04 05:24:21;;;;;;;4.10;2.20;;;;;;;25.00;32.01;101675.78;5066285;28;20053;-81
2022/07/04 05:26:48;;;;;;;3.85;2.22;;;;;;;25.09;32.35;101680.28;5049049;28;20127;-83
2022/07/04 05:29:14;;;;;;;4.82;1.90;;;;;;;25.20;32.27;101687.38;5042346;28;20124;-81
2022/07/04 05:31:41;;;;;;;3.88;2.05;;;;;;;25.29;32.54;101673.25;5046441;28;20140;-81
2022/07/04 05:34:08;;;;;;;4.60;1.85;;;;;;;25.41;32.40;101676.53;5052529;28;20079;-81
2022/07/04 05:36:35;;;;;;;4.72;2.38;;;;;;;25.53;32.32;101668.69;5047071;28;20126;-80
2022/07/04 05:39:01;;;;;;;4.35;2.13;;;;;;;25.65;32.40;101670.91;5048264;28;20124;-81
2022/07/04 05:41:28;;;;;;;3.63;2.40;;;;;;;25.77;32.18;101675.03;5065220;28;20049;-80
2022/07/04 05:43:55;;;;;;;4.35;2.40;;;;;;;25.89;31.95;101663.47;5046335;28;20095;-82
2022/07/04 05:46:25;;;;;;;4.65;2.53;;;;;;;26.02;32.01;101677.66;5071022;28;20045;-82
2022/07/04 05:48:52;;;;;;;4.85;2.15;;;;;;;26.12;31.78;101676.34;5048539;28;20499;-82
2022/07/04 05:51:18;;;;;;;5.43;2.42;;;;;;;26.26;31.37;101680.31;5045928;28;20087;-83
2022/07/04 05:53:45;;;;;;;4.30;2.30;;;;;;;26.37;31.52;101670.66;5050742;28;20127;-84
2022/07/04 05:56:12;;;;;;;3.83;2.03;;;;;;;26.49;31.76;101672.81;5046931;28;20052;-85
2022/07/04 05:58:40;;;;;;;4.07;1.92;;;;;;;26.60;31.49;101676.22;5052216;28;20397;-84
2022/07/04 06:01:07;;;;;;;5.10;2.00;;;;;;;26.72;31.42;101675.56;5048136;28;20126;-83
2022/07/04 06:03:38;;;;;;;4.38;2.10;;;;;;;26.82;31.37;101678.09;5048236;28;20076;-82
2022/07/04 06:06:05;;;;;;;4.07;1.92;;;;;;;26.92;31.09;101678.75;5048080;28;20491;-84
2022/07/04 06:08:31;;;;;;;4.60;1.90;;;;;;;27.01;30.92;101680.41;5043879;28;20128;-85
2022/07/04 06:11:03;;;;;;;7.68;2.30;;;;;;;27.15;30.73;101678.66;5050072;28;20048;-82
2022/07/04 06:13:29;;;;;;;5.38;2.10;;;;;;;27.20;31.00;101676.16;5070236;28;20049;-83
2022/07/04 06:15:56;;;;;;;3.35;1.67;;;;;;;27.28;30.35;101674.16;5054147;28;20458;-87
2022/07/04 06:18:23;;;;;;;4.65;1.70;;;;;;;27.38;30.24;101673.88;5028507;28;20045;-86
2022/07/04 06:20:50;;;;;;;3.63;1.67;;;;;;;27.45;30.32;101669.25;5045646;28;20107;-87
2022/07/04 06:23:17;;;;;;;5.97;1.70;;;;;;;27.53;30.47;101674.75;5041014;28;20451;-85
2022/07/04 06:25:47;;;;;;;4.63;1.52;;;;;;;27.64;29.91;101677.06;5067852;28;20041;-85
2022/07/04 06:28:13;;;;;;;2.53;1.33;;;;;;;27.68;30.03;101669.16;5053457;28;20064;-86
2022/07/04 06:31:00;;;;;;;4.22;2.00;;;;;;;27.77;29.93;101669.91;5043722;28;20084;-85
2022/07/04 06:33:27;;;;;;;4.55;1.45;;;;;;;27.85;30.04;101672.59;5070412;28;20079;-89
2022/07/04 06:35:56;;;;;;;3.13;1.50;;;;;;;27.92;29.97;101666.00;5062491;28;20053;-90
2022/07/04 06:38:26;;;;;;;3.90;2.00;;;;;;;28.03;29.81;101678.59;5053677;28;20052;-87
2022/07/04 06:40:58;;;;;;;4.78;1.80;;;;;;;28.12;28.98;101673.78;5055851;28;20049;-88
2022/07/04 06:43:26;;;;;;;4.65;1.60;;;;;;;28.14;29.56;101675.31;5055966;28;20049;-87
2022/07/04 06:45:55;;;;;;;3.75;1.48;;;;;;;28.25;28.92;101673.97;5050005;28;20057;-85
2022/07/04 06:48:22;;;;;;;3.60;1.30;;;;;;;28.29;29.21;101680.88;5052472;28;20045;-85
2022/07/04 06:50:49;;;;;;;3.75;1.40;;;;;;;28.38;28.96;101685.25;5059310;28;20076;-86
2022/07/04 06:53:15;;;;;;;2.67;1.33;;;;;;;28.45;28.90;101682.53;5041055;28;20056;-85
2022/07/04 06:55:43;;;;;;;1.67;1.10;;;;;;;28.53;28.54;101685.19;5066730;28;20453;-86
2022/07/04 06:58:12;;;;;;;2.58;1.00;;;;;;;28.59;28.34;101684.38;5055781;28;20049;-86
2022/07/04 07:00:38;;;;;;;4.95;1.40;;;;;;;28.65;28.50;101686.41;5049897;28;20076;-78
2022/07/04 07:03:05;;;;;;;3.03;1.20;;;;;;;28.72;28.16;101690.13;5028676;28;20441;-78
2022/07/04 07:05:32;;;;;;;2.35;1.00;;;;;;;28.77;28.18;101685.66;5062001;28;20056;-78
2022/07/04 07:08:19;;;;;;;2.10;1.30;;;;;;;28.84;28.29;101694.09;5051452;28;20158;-79
2022/07/04 07:10:46;;;;;;;2.83;1.20;;;;;;;28.89;28.03;101688.78;5060606;28;20131;-77
2022/07/04 07:13:14;;;;;;;3.08;1.60;;;;;;;28.92;27.96;101691.16;5047447;28;20124;-78
2022/07/04 07:15:40;;;;;;;2.83;1.30;;;;;;;28.97;27.67;101688.66;5053628;28;20057;-78
2022/07/04 07:18:07;;;;;;;3.33;1.30;;;;;;;29.00;27.71;101681.75;5041438;28;20563;-77
2022/07/04 07:20:34;;;;;;;2.97;1.10;;;;;;;29.04;27.47;101672.78;5055666;28;20076;-77
2022/07/04 07:23:04;;;;;;;2.03;1.17;;;;;;;29.11;27.34;101676.47;5054685;28;20132;-77
2022/07/04 07:25:31;;;;;;;2.53;0.93;;;;;;;29.11;27.14;101679.28;5047442;28;20044;-78
2022/07/04 07:27:57;;;;;;;1.55;0.90;;;;;;;29.15;27.26;101683.38;5049299;28;20041;-79
2022/07/04 07:30:24;;;;;;;1.95;1.02;;;;;;;29.18;27.27;101679.31;5052243;28;20056;-78
2022/07/04 07:32:50;;;;;;;1.27;0.80;;;;;;;29.23;27.09;101684.31;5055757;28;20048;-78
2022/07/04 07:35:17;;;;;;;2.05;0.70;;;;;;;29.26;27.19;101687.56;5053893;28;20044;-78
2022/07/04 07:37:44;;;;;;;1.02;0.68;;;;;;;29.31;26.72;101675.75;5044750;28;20080;-78
2022/07/04 07:40:10;;;;;;;1.92;0.80;;;;;;;29.34;26.05;101676.19;5057287;28;20091;-78
2022/07/04 07:42:37;;;;;;;1.63;0.80;;;;;;;29.38;25.68;101671.97;5046956;28;20053;-77
2022/07/04 07:45:04;;;;;;;2.00;0.82;;;;;;;29.42;25.91;101669.59;5053674;28;20076;-79
2022/07/04 07:47:31;;;;;;;2.40;0.70;;;;;;;29.45;25.66;101669.19;5052757;28;20051;-77
2022/07/04 07:49:57;;;;;;;3.20;1.00;;;;;;;29.49;25.75;101670.50;5049179;28;20077;-77
2022/07/04 07:52:24;;;;;;;1.10;0.75;;;;;;;29.52;25.67;101665.38;5052708;28;20044;-78
2022/07/04 07:54:53;;;;;;;1.35;0.65;;;;;;;29.57;25.40;101666.69;5053312;28;20041;-78
2022/07/04 07:57:29;;;;;;;1.70;0.70;;;;;;;29.61;25.38;101677.25;5046629;28;20064;-77
2022/07/04 07:59:56;;;;;;;1.88;0.60;;;;;;;29.67;25.29;101667.16;5044718;28;20048;-78
2022/07/04 08:05:09;;;;;;;1.48;0.60;;;;;;;29.75;25.51;101670.63;5043160;28;20091;-78
2022/07/04 08:07:35;;;;;;;1.10;0.63;;;;;;;29.82;25.33;101667.84;5052668;28;20463;-78
2022/07/04 08:10:02;;;;;;;1.55;0.60;;;;;;;29.88;25.17;101675.44;5054024;28;20036;-77
2022/07/04 08:12:29;;;;;;;0.95;0.60;;;;;;;29.94;25.16;101677.44;5052967;28;20447;-77
2022/07/04 08:14:56;;;;;;;2.28;0.75;;;;;;;29.99;25.21;101673.97;5041508;28;20045;-77
2022/07/04 08:17:28;;;;;;;2.25;0.57;;;;;;;30.01;25.07;101672.72;5052961;28;20036;-77
2022/07/04 08:19:55;;;;;;;1.38;0.45;;;;;;;30.09;25.07;101675.31;5047762;28;20336;-77
2022/07/04 08:22:21;;;;;;;1.42;0.60;;;;;;;30.13;24.65;101672.97;5046226;28;20068;-78
2022/07/04 08:24:48;;;;;;;2.78;0.63;;;;;;;30.20;24.90;101677.53;5050823;28;20476;-78
2022/07/04 08:27:14;;;;;;;1.05;0.52;;;;;;;30.26;24.85;101678.59;5050995;28;20084;-78
2022/07/04 08:29:41;;;;;;;1.50;0.63;;;;;;;30.32;24.90;101677.75;5043696;28;20104;-78
2022/07/04 08:32:08;;;;;;;1.45;0.52;;;;;;;30.38;24.93;101678.84;5045942;28;20041;-77
2022/07/04 08:34:35;;;;;;;1.42;0.60;;;;;;;30.44;24.91;101678.84;5050763;28;20029;-78
2022/07/04 08:37:02;;;;;;;3.28;0.80;;;;;;;30.50;24.74;101677.13;5067544;28;20061;-77
2022/07/04 08:39:30;;;;;;;1.45;0.68;;;;;;;30.55;24.29;101678.28;5053437;28;20340;-77
2022/07/04 08:42:02;;;;;;;1.02;0.50;;;;;;;30.66;23.88;101681.50;5058533;28;20478;-77
2022/07/04 08:44:30;;;;;;;1.08;0.57;;;;;;;30.68;24.19;101663.38;5058084;28;20049;-77
2022/07/04 08:46:57;;;;;;;2.90;0.68;;;;;;;30.71;24.03;101662.97;5052713;28;20442;-76
2022/07/04 08:49:31;;;;;;;1.58;0.50;;;;;;;30.80;24.03;101666.41;5047534;28;20079;-76
2022/07/04 08:51:59;;;;;;;2.90;0.52;;;;;;;30.83;23.66;101665.97;5044248;28;20559;-75
2022/07/04 08:59:58;;;;;;;1.67;0.60;;;;;;;30.92;23.71;101659.06;5066731;28;20140;-76
2022/07/04 09:02:29;;;;;;;2.28;0.60;;;;;;;31.01;23.01;101657.75;5042978;28;20053;-76
2022/07/04 09:04:56;;;;;;;0.70;0.40;;;;;;;31.00;23.41;101651.28;5043310;28;20083;-75
2022/07/04 09:07:23;;;;;;;1.15;0.70;;;;;;;31.06;23.05;101659.91;5048121;28;20072;-77
2022/07/04 09:09:49;;;;;;;1.40;0.68;;;;;;;31.08;22.88;101654.97;5045528;28;20128;-76
2022/07/04 09:12:18;;;;;;;2.15;0.60;;;;;;;31.11;23.10;101658.22;5046044;28;20041;-77
2022/07/04 09:14:45;;;;;;;1.45;0.60;;;;;;;31.17;22.77;101667.69;5043036;28;20081;-76
2022/07/04 09:17:12;;;;;;;1.13;0.50;;;;;;;31.19;22.54;101666.41;5045067;28;20049;-78
2022/07/04 09:19:39;;;;;;;1.00;0.57;;;;;;;31.22;22.71;101667.91;5043331;28;20552;-77
2022/07/04 09:22:14;;;;;;;0.93;0.80;;;;;;;31.28;22.49;101664.25;5048405;28;20059;-77
2022/07/04 09:24:49;;;;;;;1.60;0.55;;;;;;;31.31;22.03;101663.78;5039580;28;20068;-77
2022/07/04 09:27:36;;;;;;;2.80;0.60;;;;;;;31.32;22.50;101655.16;5047895;28;20462;-76
2022/07/04 09:30:04;;;;;;;1.35;0.52;;;;;;;31.35;22.82;101656.66;5047657;28;20037;-76
2022/07/04 09:32:41;;;;;;;1.48;0.60;;;;;;;31.42;22.58;101649.09;5046086;28;20072;-76
2022/07/04 09:35:15;;;;;;;1.38;0.50;;;;;;;31.45;22.59;101647.78;5044397;28;20068;-77
2022/07/04 09:37:47;;;;;;;2.85;0.90;;;;;;;31.50;22.74;101651.66;5038778;28;20049;-76
2022/07/04 09:43:25;;;;;;;0.75;0.47;;;;;;;31.53;22.93;101648.41;5056399;28;20041;-76
2022/07/04 09:45:55;;;;;;;2.20;1.00;;;;;;;31.62;22.56;101652.72;5047006;28;20052;-77
2022/07/04 09:48:23;;;;;;;1.08;0.60;;;;;;;31.66;22.71;101647.50;5050379;28;20069;-77
2022/07/04 09:50:50;;;;;;;1.17;0.60;;;;;;;31.70;22.60;101646.88;5047401;28;20049;-77
2022/07/04 09:53:17;;;;;;;2.65;0.80;;;;;;;31.75;22.31;101651.81;5043064;28;20040;-77
2022/07/04 09:55:47;;;;;;;2.17;0.70;;;;;;;31.79;22.03;101644.66;5052990;28;20103;-77
2022/07/04 09:58:15;;;;;;;1.63;0.52;;;;;;;31.85;21.94;101655.00;5065239;28;20060;-77
2022/07/04 10:00:47;;;;;;;2.05;0.70;;;;;;;31.92;21.87;101660.59;5052006;28;20456;-77
2022/07/04 10:03:28;;;;;;;1.08;0.50;;;;;;;31.93;21.19;101659.50;5044018;28;20569;-77
2022/07/04 10:06:04;;;;;;;1.70;0.68;;;;;;;31.98;21.64;101649.31;5050938;28;20049;-77
2022/07/04 10:08:33;;;;;;;0.93;0.60;;;;;;;31.99;21.45;101659.47;5055131;28;20045;-77
2022/07/04 10:11:01;;;;;;;2.13;0.80;;;;;;;31.99;21.28;101651.03;5046932;28;20071;-77
2022/07/04 10:13:34;;;;;;;1.20;0.52;;;;;;;31.98;21.77;101646.50;5046559;28;20106;-77
2022/07/04 10:16:01;;;;;;;1.05;0.50;;;;;;;31.99;21.36;101658.59;5047561;28;20458;-77
2022/07/04 10:18:28;;;;;;;1.42;0.60;;;;;;;31.99;21.31;101645.41;5048708;28;20061;-77
2022/07/04 10:20:56;;;;;;;1.63;0.45;;;;;;;32.02;21.69;101646.91;5038035;28;20167;-77
2022/07/04 10:23:30;;;;;;;1.27;0.60;;;;;;;32.02;21.28;101638.50;5045124;28;20056;-78
2022/07/04 10:25:58;;;;;;;3.42;0.85;;;;;;;32.03;21.35;101635.47;5056158;28;20083;-77
2022/07/04 10:28:26;;;;;;;2.03;0.60;;;;;;;32.05;21.46;101632.41;5035109;28;20052;-77
2022/07/04 10:30:55;;;;;;;1.67;0.52;;;;;;;32.07;21.50;101633.03;5048663;28;20071;-77
2022/07/04 10:33:25;;;;;;;1.27;0.60;;;;;;;32.10;21.47;101636.28;5051424;28;20127;-77
2022/07/04 10:36:01;;;;;;;1.80;0.70;;;;;;;32.14;21.20;101629.09;5050083;28;20132;-77
2022/07/04 10:38:32;;;;;;;1.55;0.70;;;;;;;32.13;21.45;101635.81;5042887;28;20044;-77
2022/07/04 10:41:04;;;;;;;0.98;0.60;;;;;;;32.17;21.07;101625.03;5053122;28;20087;-76
2022/07/04 10:43:43;;;;;;;;;;;;;;;31.86;21.88;101623.03;5043010;28;20298;-75
2022/07/04 10:46:13;;;;;;;2.13;0.80;;;;;;;32.18;21.62;101623.09;5056540;28;20039;-75
2022/07/04 10:48:51;;;;;;;3.17;0.80;;;;;;;32.25;21.16;101626.69;5064415;28;20063;-75
2022/07/04 10:51:50;;;;;;;1.27;0.70;;;;;;;32.27;21.36;101621.72;5045346;28;20453;-76
2022/07/04 10:54:31;;;;;;;1.77;0.77;;;;;;;32.33;21.18;101613.25;5048004;28;20036;-77
2022/07/04 10:57:17;;;;;;;1.48;0.63;;;;;;;32.32;21.31;101616.28;5054220;28;20427;-78
2022/07/04 11:00:06;;;;;;;1.42;0.73;;;;;;;32.39;20.95;101609.50;5046999;28;20139;-78
2022/07/04 11:02:34;;;;;;;1.38;0.70;;;;;;;32.40;21.06;101605.63;5052717;28;20052;-77
2022/07/04 11:05:06;;;;;;;1.73;0.63;;;;;;;32.44;20.71;101597.59;5045741;28;20045;-79
2022/07/04 11:07:35;;;;;;;2.05;0.88;;;;;;;32.39;20.72;101600.22;5045287;28;20060;-78
2022/07/04 11:10:11;;;;;;;2.10;0.73;;;;;;;32.40;20.76;101596.31;5055928;28;20058;-79
2022/07/04 11:15:32;;;;;;;2.45;0.70;;;;;;;32.35;21.02;101601.78;5062472;28;20151;-79
2022/07/04 11:18:01;;;;;;;1.33;0.70;;;;;;;32.31;21.20;101598.53;5048831;28;20052;-80
2022/07/04 11:20:30;;;;;;;2.50;0.80;;;;;;;32.33;21.31;101593.56;5054978;28;20080;-79
2022/07/04 11:23:15;;;;;;;2.20;0.80;;;;;;;32.33;21.41;101587.94;5067884;28;20060;-79
2022/07/04 11:25:48;;;;;;;3.00;1.00;;;;;;;32.37;21.15;101588.31;5056034;28;20128;-79
2022/07/04 11:28:21;;;;;;;1.42;0.65;;;;;;;32.40;20.87;101585.06;5064758;28;20072;-79
2022/07/04 11:31:07;;;;;;;1.35;0.63;;;;;;;32.39;20.87;101580.53;5053319;28;20062;-79
2022/07/04 11:33:36;;;;;;;1.70;0.70;;;;;;;32.45;20.74;101583.28;5068297;28;20056;-79
2022/07/04 11:36:16;;;;;;;1.42;0.80;;;;;;;32.51;20.58;101587.16;5063170;28;20097;-79
2022/07/04 11:38:47;;;;;;;2.00;0.70;;;;;;;32.52;20.80;101579.59;5051899;28;20059;-79
2022/07/04 11:47:17;;;;;;;0.82;0.63;;;;;;;32.54;20.36;101568.94;5069703;28;20472;-79
2022/07/04 11:49:53;;;;;;;1.10;0.60;;;;;;;32.56;20.17;101563.94;5059002;28;20048;-79
2022/07/04 11:52:41;;;;;;;2.05;0.90;;;;;;;32.59;20.30;101575.63;5060686;28;20611;-80
2022/07/04 11:55:27;;;;;;;1.92;0.90;;;;;;;32.56;20.40;101563.94;5068066;28;20417;-80
2022/07/04 11:57:55;;;;;;;2.42;1.10;;;;;;;32.57;20.00;101569.34;5043975;28;20125;-80